createdAt,value
2018-06-23T00:00:55.000Z,29.4
2018-06-23T00:02:55.000Z,29.4
2018-06-23T00:04:55.000Z,29.3
2018-06-23T00:06:55.000Z,29.3
2018-06-23T00:07:55.000Z,29.3
2018-06-23T00:09:55.000Z,29.3
2018-06-23T00:10:55.000Z,29.3
2018-06-23T00:12:55.000Z,29.3
2018-06-23T00:14:55.000Z,29.3
2018-06-23T00:15:55.000Z,29.3
2018-06-23T00:17:55.000Z,29.3
2018-06-23T00:19:55.000Z,29.3
2018-06-23T00:20:55.000Z,29.3
2018-06-23T00:21:55.000Z,29.4
2018-06-23T00:23:55.000Z,29.4
2018-06-23T00:25:55.000Z,29.4
2018-06-23T00:26:55.000Z,29.4
2018-06-23T00:28:55.000Z,29.4
2018-06-23T00:29:55.000Z,29.4
2018-06-23T00:31:55.000Z,29.4
2018-06-23T00:33:55.000Z,29.3
2018-06-23T00:35:55.000Z,29.2
2018-06-23T00:36:55.000Z,29.2
2018-06-23T00:38:55.000Z,29.2
2018-06-23T00:39:55.000Z,29.2
2018-06-23T00:41:55.000Z,29.2
2018-06-23T00:43:40.000Z,29.2
2018-06-23T00:44:55.000Z,29.1
2018-06-23T00:46:55.000Z,29.1
2018-06-23T00:48:55.000Z,29.1
2018-06-23T00:50:55.000Z,29
2018-06-23T00:51:55.000Z,29
2018-06-23T00:52:55.000Z,29.1
2018-06-23T00:54:55.000Z,29.1
2018-06-23T00:55:55.000Z,29.2
2018-06-23T00:56:55.000Z,29.3
2018-06-23T00:58:55.000Z,29.3
2018-06-23T01:00:55.000Z,29.3
2018-06-23T01:01:55.000Z,29.3
2018-06-23T01:03:55.000Z,29.3
2018-06-23T01:05:55.000Z,29.3
2018-06-23T01:07:55.000Z,29.2
2018-06-23T01:09:55.000Z,29.2
2018-06-23T01:11:55.000Z,29.1
2018-06-23T01:13:40.000Z,29.1
2018-06-23T01:14:55.000Z,29
2018-06-23T01:15:55.000Z,29
2018-06-23T01:16:55.000Z,29.1
2018-06-23T01:18:55.000Z,29.1
2018-06-23T01:20:55.000Z,29.1
2018-06-23T01:22:55.000Z,29
2018-06-23T01:23:55.000Z,29
2018-06-23T01:24:55.000Z,29
2018-06-23T01:26:55.000Z,29.1
2018-06-23T01:27:55.000Z,29.1
2018-06-23T01:29:40.000Z,29.2
2018-06-23T01:30:55.000Z,29.2
2018-06-23T01:32:55.000Z,29.1
2018-06-23T01:33:55.000Z,29.1
2018-06-23T01:35:55.000Z,29.1
2018-06-23T01:37:55.000Z,29.1
2018-06-23T01:39:40.000Z,29
2018-06-23T01:40:55.000Z,29
2018-06-23T01:41:55.000Z,29
2018-06-23T01:42:55.000Z,29.1
2018-06-23T01:44:55.000Z,29.2
2018-06-23T01:45:55.000Z,29.2
2018-06-23T01:46:55.000Z,29.3
2018-06-23T01:48:55.000Z,29.3
2018-06-23T01:50:55.000Z,29.3
2018-06-23T01:52:55.000Z,29.2
2018-06-23T01:54:55.000Z,29.1
2018-06-23T01:55:55.000Z,29.1
2018-06-23T01:57:55.000Z,29.1
2018-06-23T01:58:55.000Z,29.1
2018-06-23T02:00:55.000Z,29.2
2018-06-23T02:01:55.000Z,29.2
2018-06-23T02:02:55.000Z,29.3
2018-06-23T02:04:55.000Z,29.3
2018-06-23T02:05:55.000Z,29.3
2018-06-23T02:06:55.000Z,29.4
2018-06-23T02:08:55.000Z,29.4
2018-06-23T02:09:55.000Z,29.4
2018-06-23T02:11:55.000Z,29.3
2018-06-23T02:13:55.000Z,29.2
2018-06-23T02:14:55.000Z,29.2
2018-06-23T02:15:55.000Z,29.3
2018-06-23T02:16:55.000Z,29.3
2018-06-23T02:17:55.000Z,29.3
2018-06-23T02:19:55.000Z,29.3
2018-06-23T02:21:55.000Z,29.1
2018-06-23T02:23:55.000Z,29
2018-06-23T02:25:55.000Z,29
2018-06-23T02:26:55.000Z,29
2018-06-23T02:28:55.000Z,29
2018-06-23T02:30:55.000Z,29
2018-06-23T02:32:55.000Z,28.9
2018-06-23T02:34:55.000Z,28.9
2018-06-23T02:36:55.000Z,28.9
2018-06-23T02:37:55.000Z,29
2018-06-23T02:39:55.000Z,29
2018-06-23T02:40:55.000Z,29
2018-06-23T02:41:55.000Z,29
2018-06-23T02:43:55.000Z,29.1
2018-06-23T02:44:55.000Z,29.1
2018-06-23T02:46:39.000Z,29.2
2018-06-23T02:47:55.000Z,29.1
2018-06-23T02:48:55.000Z,29.2
2018-06-23T02:49:55.000Z,29.2
2018-06-23T02:51:39.000Z,29.2
2018-06-23T02:52:55.000Z,29.2
2018-06-23T02:54:55.000Z,29.1
2018-06-23T02:56:55.000Z,29.1
2018-06-23T02:57:55.000Z,29.1
2018-06-23T02:59:55.000Z,29.1
2018-06-23T03:00:55.000Z,29.1
2018-06-23T03:01:55.000Z,29.1
2018-06-23T03:03:55.000Z,29
2018-06-23T03:04:55.000Z,29
2018-06-23T03:06:55.000Z,29
2018-06-23T03:08:55.000Z,29
2018-06-23T03:09:55.000Z,29.1
2018-06-23T03:10:55.000Z,29.1
2018-06-23T03:11:55.000Z,29.2
2018-06-23T03:13:55.000Z,29.3
2018-06-23T03:14:55.000Z,29.3
2018-06-23T03:15:55.000Z,29.3
2018-06-23T03:17:55.000Z,29.2
2018-06-23T03:19:55.000Z,29.1
2018-06-23T03:20:55.000Z,29.1
2018-06-23T03:22:55.000Z,29.1
2018-06-23T03:23:55.000Z,29.1
2018-06-23T03:25:39.000Z,29.1
2018-06-23T03:26:54.000Z,29.1
2018-06-23T03:28:54.000Z,29.1
2018-06-23T03:29:54.000Z,29.1
2018-06-23T03:30:54.000Z,29.1
2018-06-23T03:31:54.000Z,29.1
2018-06-23T03:33:54.000Z,29.2
2018-06-23T03:35:54.000Z,29.1
2018-06-23T03:37:54.000Z,29
2018-06-23T03:38:54.000Z,29
2018-06-23T03:40:54.000Z,29
2018-06-23T03:42:54.000Z,28.9
2018-06-23T03:43:54.000Z,28.9
2018-06-23T03:44:54.000Z,28.9
2018-06-23T03:45:54.000Z,29
2018-06-23T03:47:54.000Z,29.1
2018-06-23T03:49:54.000Z,29
2018-06-23T03:51:54.000Z,29
2018-06-23T03:52:54.000Z,29
2018-06-23T03:53:54.000Z,29.1
2018-06-23T03:54:54.000Z,29.1
2018-06-23T03:55:54.000Z,29.2
2018-06-23T03:56:54.000Z,29.2
2018-06-23T03:57:54.000Z,29.3
2018-06-23T03:59:54.000Z,29.3
2018-06-23T04:00:54.000Z,29.4
2018-06-23T04:02:54.000Z,29.4
2018-06-23T04:03:54.000Z,29.4
2018-06-23T04:05:54.000Z,29.3
2018-06-23T04:07:54.000Z,29.2
2018-06-23T04:09:54.000Z,29.1
2018-06-23T04:10:54.000Z,29.1
2018-06-23T04:11:54.000Z,29.1
2018-06-23T04:13:54.000Z,29.1
2018-06-23T04:15:54.000Z,29.1
2018-06-23T04:16:54.000Z,29.1
2018-06-23T04:18:54.000Z,29.2
2018-06-23T04:20:54.000Z,29.1
2018-06-23T04:22:54.000Z,29
2018-06-23T04:23:54.000Z,29
2018-06-23T04:25:54.000Z,29.1
2018-06-23T04:27:54.000Z,29.1
2018-06-23T04:29:54.000Z,29
2018-06-23T04:31:54.000Z,29
2018-06-23T04:32:54.000Z,29
2018-06-23T04:34:39.000Z,29.1
2018-06-23T04:35:54.000Z,29.1
2018-06-23T04:37:54.000Z,29
2018-06-23T04:38:54.000Z,29
2018-06-23T04:39:54.000Z,29.1
2018-06-23T04:40:54.000Z,29.1
2018-06-23T04:41:54.000Z,29.1
2018-06-23T04:43:54.000Z,29.2
2018-06-23T04:45:54.000Z,29.2
2018-06-23T04:46:54.000Z,29.2
2018-06-23T04:47:54.000Z,29.2
2018-06-23T04:49:54.000Z,29.2
2018-06-23T04:51:54.000Z,29.2
2018-06-23T04:55:54.000Z,28.7
2018-06-23T04:57:40.000Z,28.7
2018-06-23T04:59:40.000Z,28.7
2018-06-23T05:01:40.000Z,28.8
2018-06-23T05:03:40.000Z,28.9
2018-06-23T05:04:40.000Z,28.9
2018-06-23T05:05:40.000Z,29
2018-06-23T05:06:40.000Z,29.1
2018-06-23T05:08:40.000Z,29.1
2018-06-23T05:09:40.000Z,29.2
2018-06-23T05:11:40.000Z,29.2
2018-06-23T05:12:40.000Z,29.2
2018-06-23T05:14:40.000Z,29.3
2018-06-23T05:16:40.000Z,29.3
2018-06-23T05:18:40.000Z,29.2
2018-06-23T05:19:40.000Z,29.2
2018-06-23T05:20:40.000Z,29.2
2018-06-23T05:22:40.000Z,29.2
2018-06-23T05:23:40.000Z,29.2
2018-06-23T05:24:40.000Z,29.3
2018-06-23T05:26:40.000Z,29.3
2018-06-23T05:27:40.000Z,29.3
2018-06-23T05:28:40.000Z,29.4
2018-06-23T05:30:40.000Z,29.4
2018-06-23T05:32:41.000Z,29.3
2018-06-23T05:34:41.000Z,29.2
2018-06-23T05:35:41.000Z,29.2
2018-06-23T05:36:41.000Z,29.3
2018-06-23T05:38:41.000Z,29.3
2018-06-23T05:40:25.000Z,29.2
2018-06-23T05:41:41.000Z,29.2
2018-06-23T05:42:41.000Z,29.2
2018-06-23T05:44:41.000Z,29.2
2018-06-23T05:46:41.000Z,29.2
2018-06-23T05:48:41.000Z,29.2
2018-06-23T05:49:41.000Z,29.2
2018-06-23T05:51:41.000Z,29.2
2018-06-23T05:52:41.000Z,29.2
2018-06-23T05:54:41.000Z,29.2
2018-06-23T05:56:41.000Z,29.2
2018-06-23T05:57:41.000Z,29.1
2018-06-23T05:58:41.000Z,29.2
2018-06-23T06:00:41.000Z,29.2
2018-06-23T06:01:41.000Z,29.3
2018-06-23T06:02:41.000Z,29.3
2018-06-23T06:03:41.000Z,29.3
2018-06-23T06:04:41.000Z,29.4
2018-06-23T06:06:25.000Z,29.4
2018-06-23T06:07:41.000Z,29.3
2018-06-23T06:08:41.000Z,29.3
2018-06-23T06:10:41.000Z,29.3
2018-06-23T06:12:41.000Z,29.2
2018-06-23T06:13:41.000Z,29.2
2018-06-23T06:15:41.000Z,29.2
2018-06-23T06:17:41.000Z,29.2
2018-06-23T06:19:41.000Z,29.2
2018-06-23T06:21:25.000Z,29.2
2018-06-23T06:22:41.000Z,29.2
2018-06-23T06:24:41.000Z,29.1
2018-06-23T06:25:41.000Z,29.1
2018-06-23T06:27:41.000Z,29.2
2018-06-23T06:29:41.000Z,29.2
2018-06-23T06:31:41.000Z,29.1
2018-06-23T06:33:41.000Z,29.1
2018-06-23T06:35:41.000Z,29.1
2018-06-23T06:37:40.000Z,29.2
2018-06-23T06:38:41.000Z,29.2
2018-06-23T06:40:41.000Z,29.2
2018-06-23T06:41:41.000Z,29.2
2018-06-23T06:43:41.000Z,29.2
2018-06-23T06:44:41.000Z,29.2
2018-06-23T06:46:40.000Z,29.3
2018-06-23T06:47:41.000Z,29.3
2018-06-23T06:48:41.000Z,29.3
2018-06-23T06:50:25.000Z,29.4
2018-06-23T06:51:40.000Z,29.4
2018-06-23T06:52:41.000Z,29.4
2018-06-23T06:53:41.000Z,29.5
2018-06-23T06:54:41.000Z,29.6
2018-06-23T06:56:41.000Z,29.8
2018-06-23T06:58:41.000Z,29.8
2018-06-23T06:59:41.000Z,29.8
2018-06-23T07:00:41.000Z,29.9
2018-06-23T07:01:41.000Z,30
2018-06-23T07:02:41.000Z,30
2018-06-23T07:03:41.000Z,30.1
2018-06-23T07:05:41.000Z,30.2
2018-06-23T07:07:41.000Z,30.2
2018-06-23T07:09:40.000Z,30.1
2018-06-23T07:10:41.000Z,30
2018-06-23T07:11:41.000Z,30.1
2018-06-23T07:13:41.000Z,30.1
2018-06-23T07:14:41.000Z,30.1
2018-06-23T07:15:41.000Z,30.1
2018-06-23T07:17:40.000Z,30.2
2018-06-23T07:18:40.000Z,30.2
2018-06-23T07:19:40.000Z,30.2
2018-06-23T07:20:41.000Z,30.3
2018-06-23T07:21:41.000Z,30.3
2018-06-23T07:23:41.000Z,30.3
2018-06-23T07:25:41.000Z,30.2
2018-06-23T07:26:41.000Z,30.2
2018-06-23T07:28:25.000Z,30.2
2018-06-23T07:29:41.000Z,30.1
2018-06-23T07:30:41.000Z,30.2
2018-06-23T07:32:25.000Z,30.2
2018-06-23T07:33:41.000Z,30.2
2018-06-23T07:35:41.000Z,30.2
2018-06-23T07:37:41.000Z,30.2
2018-06-23T07:38:41.000Z,30.3
2018-06-23T07:39:41.000Z,30.3
2018-06-23T07:40:41.000Z,30.4
2018-06-23T07:41:41.000Z,30.5
2018-06-23T07:43:41.000Z,30.5
2018-06-23T07:45:41.000Z,30.5
2018-06-23T07:47:41.000Z,30.4
2018-06-23T07:48:41.000Z,30.4
2018-06-23T07:50:25.000Z,30.4
2018-06-23T07:51:41.000Z,30.4
2018-06-23T07:52:41.000Z,30.4
2018-06-23T07:53:41.000Z,30.5
2018-06-23T07:55:41.000Z,30.5
2018-06-23T07:57:41.000Z,30.5
2018-06-23T07:58:41.000Z,30.5
2018-06-23T08:00:25.000Z,30.6
2018-06-23T08:01:41.000Z,30.5
2018-06-23T08:02:41.000Z,30.6
2018-06-23T08:03:41.000Z,30.7
2018-06-23T08:05:41.000Z,30.7
2018-06-23T08:07:41.000Z,30.5
2018-06-23T08:08:41.000Z,30.4
2018-06-23T08:10:25.000Z,30.4
2018-06-23T08:11:41.000Z,30.4
2018-06-23T08:13:41.000Z,30.3
2018-06-23T08:14:41.000Z,30.3
2018-06-23T08:16:41.000Z,30.4
2018-06-23T08:17:41.000Z,30.4
2018-06-23T08:19:41.000Z,30.5
2018-06-23T08:20:41.000Z,30.6
2018-06-23T08:22:41.000Z,30.7
2018-06-23T08:24:41.000Z,30.7
2018-06-23T08:25:41.000Z,30.7
2018-06-23T08:27:41.000Z,30.8
2018-06-23T08:28:41.000Z,30.8
2018-06-23T08:29:41.000Z,30.9
2018-06-23T08:31:41.000Z,30.9
2018-06-23T08:32:41.000Z,30.9
2018-06-23T08:33:41.000Z,31
2018-06-23T08:35:25.000Z,31.1
2018-06-23T08:36:41.000Z,31.2
2018-06-23T08:38:41.000Z,31.3
2018-06-23T08:40:41.000Z,31.2
2018-06-23T08:42:41.000Z,30.9
2018-06-23T08:44:41.000Z,30.8
2018-06-23T08:46:41.000Z,30.7
2018-06-23T08:48:41.000Z,30.6
2018-06-23T08:49:41.000Z,30.7
2018-06-23T08:50:41.000Z,30.8
2018-06-23T08:52:41.000Z,30.8
2018-06-23T08:54:41.000Z,30.8
2018-06-23T08:55:41.000Z,30.8
2018-06-23T08:56:41.000Z,31
2018-06-23T08:58:41.000Z,31.2
2018-06-23T08:59:41.000Z,31.4
2018-06-23T09:00:41.000Z,31.6
2018-06-23T09:01:41.000Z,31.8
2018-06-23T09:03:41.000Z,32
2018-06-23T09:04:41.000Z,32.2
2018-06-23T09:06:41.000Z,32.5
2018-06-23T09:08:41.000Z,32.3
2018-06-23T09:09:41.000Z,32.3
2018-06-23T09:11:41.000Z,32.3
2018-06-23T09:12:41.000Z,32.2
2018-06-23T09:14:26.000Z,32
2018-06-23T09:15:41.000Z,31.9
2018-06-23T09:17:41.000Z,31.7
2018-06-23T09:19:41.000Z,31.9
2018-06-23T09:21:41.000Z,32.2
2018-06-23T09:22:41.000Z,32.3
2018-06-23T09:24:41.000Z,32.5
2018-06-23T09:25:41.000Z,32.6
2018-06-23T09:27:26.000Z,32.6
2018-06-23T09:28:41.000Z,32.6
2018-06-23T09:29:41.000Z,32.6
2018-06-23T09:31:41.000Z,32.6
2018-06-23T09:32:41.000Z,32.6
2018-06-23T09:33:41.000Z,32.6
2018-06-23T09:35:41.000Z,32.5
2018-06-23T09:36:41.000Z,32.4
2018-06-23T09:37:41.000Z,32.4
2018-06-23T09:39:26.000Z,32.3
2018-06-23T09:40:41.000Z,32.2
2018-06-23T09:41:41.000Z,32.1
2018-06-23T09:43:41.000Z,31.9
2018-06-23T09:44:41.000Z,31.9
2018-06-23T09:45:41.000Z,31.9
2018-06-23T09:46:41.000Z,32
2018-06-23T09:47:40.000Z,32
2018-06-23T09:48:40.000Z,32
2018-06-23T09:50:40.000Z,31.9
2018-06-23T09:52:40.000Z,31.8
2018-06-23T09:53:40.000Z,31.8
2018-06-23T09:54:40.000Z,31.8
2018-06-23T09:56:40.000Z,31.9
2018-06-23T09:57:40.000Z,32
2018-06-23T09:59:40.000Z,32
2018-06-23T10:01:40.000Z,31.9
2018-06-23T10:02:40.000Z,31.9
2018-06-23T10:03:40.000Z,32
2018-06-23T10:04:40.000Z,32
2018-06-23T10:05:40.000Z,32
2018-06-23T10:06:40.000Z,32.1
2018-06-23T10:07:40.000Z,32.1
2018-06-23T10:09:40.000Z,32.2
2018-06-23T10:11:40.000Z,32.2
2018-06-23T10:12:40.000Z,32.2
2018-06-23T10:14:40.000Z,32.1
2018-06-23T10:15:40.000Z,32
2018-06-23T10:17:40.000Z,31.9
2018-06-23T10:19:25.000Z,31.8
2018-06-23T10:20:40.000Z,31.7
2018-06-23T10:21:40.000Z,31.7
2018-06-23T10:23:40.000Z,31.6
2018-06-23T10:25:40.000Z,31.5
2018-06-23T10:26:40.000Z,31.5
2018-06-23T10:27:40.000Z,31.6
2018-06-23T10:29:25.000Z,31.8
2018-06-23T10:30:40.000Z,31.9
2018-06-23T10:31:40.000Z,32
2018-06-23T10:33:40.000Z,32.2
2018-06-23T10:35:40.000Z,32.1
2018-06-23T10:36:40.000Z,32.1
2018-06-23T10:37:40.000Z,32.1
2018-06-23T10:38:40.000Z,32.1
2018-06-23T10:40:40.000Z,32.1
2018-06-23T10:41:40.000Z,32.1
2018-06-23T10:42:40.000Z,32.2
2018-06-23T10:44:40.000Z,32.2
2018-06-23T10:46:40.000Z,32.3
2018-06-23T10:48:40.000Z,32.4
2018-06-23T10:50:40.000Z,32.4
2018-06-23T10:51:40.000Z,32.4
2018-06-23T10:52:40.000Z,32.3
2018-06-23T10:54:40.000Z,32.3
2018-06-23T10:55:40.000Z,32.2
2018-06-23T10:57:40.000Z,32.2
2018-06-23T10:58:40.000Z,32.2
2018-06-23T11:00:40.000Z,32.1
2018-06-23T11:02:40.000Z,32
2018-06-23T11:04:40.000Z,31.9
2018-06-23T11:05:40.000Z,31.8
2018-06-23T11:06:40.000Z,31.9
2018-06-23T11:07:40.000Z,32.1
2018-06-23T11:09:40.000Z,32.2
2018-06-23T11:10:40.000Z,32.2
2018-06-23T11:12:40.000Z,32.2
2018-06-23T11:13:40.000Z,32.2
2018-06-23T11:15:40.000Z,32.1
2018-06-23T11:17:40.000Z,32
2018-06-23T11:19:40.000Z,31.8
2018-06-23T11:20:40.000Z,31.7
2018-06-23T11:22:40.000Z,31.6
2018-06-23T11:23:40.000Z,31.6
2018-06-23T11:25:40.000Z,31.6
2018-06-23T11:26:40.000Z,31.6
2018-06-23T11:28:40.000Z,31.6
2018-06-23T11:30:40.000Z,31.6
2018-06-23T11:31:40.000Z,31.6
2018-06-23T11:33:40.000Z,31.7
2018-06-23T11:35:40.000Z,31.6
2018-06-23T11:37:40.000Z,31.6
2018-06-23T11:38:40.000Z,31.7
2018-06-23T11:39:40.000Z,31.8
2018-06-23T11:41:40.000Z,32
2018-06-23T11:43:40.000Z,32
2018-06-23T11:44:40.000Z,32.1
2018-06-23T11:46:40.000Z,32.2
2018-06-23T11:47:40.000Z,32.3
2018-06-23T11:49:40.000Z,32.4
2018-06-23T11:51:40.000Z,32.3
2018-06-23T11:53:40.000Z,32.2
2018-06-23T11:54:40.000Z,32.1
2018-06-23T11:56:40.000Z,32
2018-06-23T11:58:25.000Z,32
2018-06-23T11:59:40.000Z,31.9
2018-06-23T12:00:40.000Z,31.9
2018-06-23T12:02:40.000Z,31.9
2018-06-23T12:04:40.000Z,31.9
2018-06-23T12:06:40.000Z,32
2018-06-23T12:08:40.000Z,32
2018-06-23T12:10:40.000Z,32.1
2018-06-23T12:11:40.000Z,32.1
2018-06-23T12:12:40.000Z,32.1
2018-06-23T12:14:40.000Z,32.1
2018-06-23T12:15:40.000Z,32
2018-06-23T12:17:40.000Z,31.9
2018-06-23T12:19:40.000Z,31.8
2018-06-23T12:20:40.000Z,31.8
2018-06-23T12:22:40.000Z,31.9
2018-06-23T12:24:40.000Z,32
2018-06-23T12:26:40.000Z,32.2
2018-06-23T12:28:40.000Z,32.2
2018-06-23T12:29:40.000Z,32.3
2018-06-23T12:31:40.000Z,32.3
2018-06-23T12:32:40.000Z,32.3
2018-06-23T12:34:40.000Z,32.3
2018-06-23T12:36:25.000Z,32.2
2018-06-23T12:37:40.000Z,32.1
2018-06-23T12:39:40.000Z,31.9
2018-06-23T12:40:40.000Z,31.9
2018-06-23T12:41:40.000Z,31.8
2018-06-23T12:43:40.000Z,31.7
2018-06-23T12:45:40.000Z,31.6
2018-06-23T12:46:40.000Z,31.5
2018-06-23T12:47:40.000Z,31.6
2018-06-23T12:49:40.000Z,31.7
2018-06-23T12:51:40.000Z,31.7
2018-06-23T12:52:40.000Z,31.8
2018-06-23T12:54:40.000Z,31.8
2018-06-23T12:56:40.000Z,31.9
2018-06-23T12:57:40.000Z,31.9
2018-06-23T12:59:40.000Z,31.9
2018-06-23T13:00:40.000Z,31.9
2018-06-23T13:01:40.000Z,32
2018-06-23T13:02:40.000Z,32
2018-06-23T13:03:40.000Z,32
2018-06-23T13:04:40.000Z,32.1
2018-06-23T13:06:40.000Z,32.1
2018-06-23T13:07:40.000Z,32.1
2018-06-23T13:08:40.000Z,32.1
2018-06-23T13:10:40.000Z,32
2018-06-23T13:12:40.000Z,31.9
2018-06-23T13:14:40.000Z,31.7
2018-06-23T13:15:40.000Z,31.6
2018-06-23T13:16:40.000Z,31.6
2018-06-23T13:17:40.000Z,31.6
2018-06-23T13:18:40.000Z,31.6
2018-06-23T13:20:40.000Z,31.6
2018-06-23T13:22:25.000Z,31.6
2018-06-23T13:23:40.000Z,31.6
2018-06-23T13:24:40.000Z,31.6
2018-06-23T13:26:40.000Z,31.7
2018-06-23T13:27:40.000Z,31.8
2018-06-23T13:29:40.000Z,31.8
2018-06-23T13:31:40.000Z,31.8
2018-06-23T13:33:40.000Z,31.8
2018-06-23T13:34:40.000Z,31.8
2018-06-23T13:35:40.000Z,31.7
2018-06-23T13:37:40.000Z,31.7
2018-06-23T13:38:40.000Z,31.7
2018-06-23T13:39:40.000Z,31.7
2018-06-23T13:41:40.000Z,31.7
2018-06-23T13:42:40.000Z,31.7
2018-06-23T13:44:25.000Z,31.8
2018-06-23T13:45:40.000Z,31.8
2018-06-23T13:47:40.000Z,31.8
2018-06-23T13:49:40.000Z,31.7
2018-06-23T13:51:40.000Z,31.7
2018-06-23T13:53:40.000Z,31.7
2018-06-23T13:55:40.000Z,31.7
2018-06-23T13:57:40.000Z,31.7
2018-06-23T13:58:40.000Z,31.8
2018-06-23T13:59:40.000Z,31.9
2018-06-23T14:01:25.000Z,32
2018-06-23T14:02:40.000Z,32
2018-06-23T14:04:40.000Z,31.9
2018-06-23T14:05:40.000Z,31.9
2018-06-23T14:07:40.000Z,32
2018-06-23T14:08:40.000Z,32
2018-06-23T14:10:40.000Z,32
2018-06-23T14:12:40.000Z,31.9
2018-06-23T14:14:40.000Z,31.7
2018-06-23T14:15:40.000Z,31.7
2018-06-23T14:16:40.000Z,31.7
2018-06-23T14:17:40.000Z,31.7
2018-06-23T14:19:40.000Z,31.7
2018-06-23T14:20:40.000Z,31.7
2018-06-23T14:22:40.000Z,31.7
2018-06-23T14:23:40.000Z,31.7
2018-06-23T14:24:40.000Z,31.7
2018-06-23T14:26:40.000Z,31.8
2018-06-23T14:27:40.000Z,31.8
2018-06-23T14:28:40.000Z,31.8
2018-06-23T14:30:40.000Z,31.9
2018-06-23T14:32:40.000Z,31.8
2018-06-23T14:34:40.000Z,31.7
2018-06-23T14:35:40.000Z,31.7
2018-06-23T14:36:40.000Z,31.8
2018-06-23T14:38:40.000Z,31.8
2018-06-23T14:40:40.000Z,31.7
2018-06-23T14:41:40.000Z,31.7
2018-06-23T14:42:40.000Z,31.7
2018-06-23T14:43:40.000Z,31.8
2018-06-23T14:45:40.000Z,31.8
2018-06-23T14:47:40.000Z,31.8
2018-06-23T14:48:40.000Z,31.8
2018-06-23T14:50:40.000Z,31.9
2018-06-23T14:52:40.000Z,31.8
2018-06-23T14:54:40.000Z,31.7
2018-06-23T14:55:40.000Z,31.7
2018-06-23T14:57:40.000Z,31.7
2018-06-23T14:58:40.000Z,31.7
2018-06-23T15:00:40.000Z,31.8
2018-06-23T15:01:40.000Z,31.8
2018-06-23T15:02:40.000Z,31.8
2018-06-23T15:03:40.000Z,31.8
2018-06-23T15:05:41.000Z,31.7
2018-06-23T15:06:41.000Z,31.7
2018-06-23T15:08:41.000Z,31.7
2018-06-23T15:10:25.000Z,31.7
2018-06-23T15:11:41.000Z,31.6
2018-06-23T15:13:41.000Z,31.6
2018-06-23T15:15:41.000Z,31.5
2018-06-23T15:17:41.000Z,31.5
2018-06-23T15:18:41.000Z,31.5
2018-06-23T15:19:41.000Z,31.5
2018-06-23T15:21:41.000Z,31.6
2018-06-23T15:22:41.000Z,31.6
2018-06-23T15:24:25.000Z,31.6
2018-06-23T15:25:41.000Z,31.6
2018-06-23T15:26:41.000Z,31.6
2018-06-23T15:27:41.000Z,31.7
2018-06-23T15:29:41.000Z,31.8
2018-06-23T15:31:41.000Z,31.6
2018-06-23T15:33:41.000Z,31.5
2018-06-23T15:34:41.000Z,31.5
2018-06-23T15:36:41.000Z,31.5
2018-06-23T15:37:41.000Z,31.5
2018-06-23T15:39:41.000Z,31.4
2018-06-23T15:41:25.000Z,31.4
2018-06-23T15:42:41.000Z,31.3
2018-06-23T15:44:41.000Z,31.3
2018-06-23T15:46:41.000Z,31.3
2018-06-23T15:47:41.000Z,31.3
2018-06-23T15:48:41.000Z,31.4
2018-06-23T15:50:41.000Z,31.4
2018-06-23T15:51:41.000Z,31.4
2018-06-23T15:53:25.000Z,31.4
2018-06-23T15:54:41.000Z,31.4
2018-06-23T15:56:41.000Z,31.3
2018-06-23T15:57:41.000Z,31.3
2018-06-23T15:58:41.000Z,31.4
2018-06-23T16:00:41.000Z,31.4
2018-06-23T16:01:41.000Z,31.4
2018-06-23T16:03:41.000Z,31.5
2018-06-23T16:05:41.000Z,31.4
2018-06-23T16:07:41.000Z,31.3
2018-06-23T16:08:41.000Z,31.3
2018-06-23T16:10:41.000Z,31.3
2018-06-23T16:11:41.000Z,31.3
2018-06-23T16:13:41.000Z,31.4
2018-06-23T16:14:41.000Z,31.4
2018-06-23T16:15:41.000Z,31.5
2018-06-23T16:17:41.000Z,31.5
2018-06-23T16:18:41.000Z,31.5
2018-06-23T16:19:41.000Z,31.5
2018-06-23T16:21:41.000Z,31.5
2018-06-23T16:22:41.000Z,31.5
2018-06-23T16:23:41.000Z,31.5
2018-06-23T16:24:41.000Z,31.5
2018-06-23T16:26:41.000Z,31.5
2018-06-23T16:28:41.000Z,31.4
2018-06-23T16:29:41.000Z,31.4
2018-06-23T16:30:41.000Z,31.4
2018-06-23T16:32:41.000Z,31.4
2018-06-23T16:34:41.000Z,31.3
2018-06-23T16:35:41.000Z,31.3
2018-06-23T16:37:41.000Z,31.3
2018-06-23T16:38:41.000Z,31.4
2018-06-23T16:39:41.000Z,31.4
2018-06-23T16:40:41.000Z,31.4
2018-06-23T16:42:41.000Z,31.4
2018-06-23T16:44:26.000Z,31.4
2018-06-23T16:45:41.000Z,31.3
2018-06-23T16:46:41.000Z,31.3
2018-06-23T16:48:41.000Z,31.3
2018-06-23T16:49:41.000Z,31.3
2018-06-23T16:51:41.000Z,31.4
2018-06-23T16:53:41.000Z,31.3
2018-06-23T16:54:41.000Z,31.3
2018-06-23T16:55:41.000Z,31.3
2018-06-23T16:57:41.000Z,31.3
2018-06-23T16:59:41.000Z,31.2
2018-06-23T17:00:41.000Z,31.2
2018-06-23T17:01:41.000Z,31.2
2018-06-23T17:02:41.000Z,31.2
2018-06-23T17:04:41.000Z,31.2
2018-06-23T17:06:41.000Z,31.1
2018-06-23T17:07:41.000Z,31.2
2018-06-23T17:09:41.000Z,31.2
2018-06-23T17:11:41.000Z,31.1
2018-06-23T17:13:40.000Z,31
2018-06-23T17:15:40.000Z,30.9
2018-06-23T17:16:40.000Z,31
2018-06-23T17:18:40.000Z,30.9
2018-06-23T17:19:40.000Z,30.9
2018-06-23T17:21:40.000Z,31
2018-06-23T17:22:40.000Z,31
2018-06-23T17:24:40.000Z,31
2018-06-23T17:25:40.000Z,31.1
2018-06-23T17:26:40.000Z,31.1
2018-06-23T17:28:25.000Z,31.1
2018-06-23T17:29:40.000Z,31.1
2018-06-23T17:30:40.000Z,31.1
2018-06-23T17:32:40.000Z,31.1
2018-06-23T17:33:40.000Z,31.1
2018-06-23T17:35:40.000Z,31
2018-06-23T17:37:40.000Z,31
2018-06-23T17:38:40.000Z,31
2018-06-23T17:39:40.000Z,31.1
2018-06-23T17:41:40.000Z,31.1
2018-06-23T17:43:40.000Z,31
2018-06-23T17:45:40.000Z,30.9
2018-06-23T17:46:40.000Z,30.9
2018-06-23T17:48:40.000Z,30.9
2018-06-23T17:50:40.000Z,30.9
2018-06-23T17:51:40.000Z,30.8
2018-06-23T17:53:40.000Z,30.8
2018-06-23T17:54:40.000Z,30.8
2018-06-23T17:55:40.000Z,30.8
2018-06-23T17:56:40.000Z,30.8
2018-06-23T17:58:40.000Z,30.9
2018-06-23T17:59:40.000Z,30.9
2018-06-23T18:00:40.000Z,31
2018-06-23T18:01:40.000Z,31
2018-06-23T18:03:40.000Z,31
2018-06-23T18:05:40.000Z,31
2018-06-23T18:07:40.000Z,31
2018-06-23T18:08:40.000Z,31
2018-06-23T18:10:40.000Z,31
2018-06-23T18:11:40.000Z,31
2018-06-23T18:12:40.000Z,31
2018-06-23T18:14:40.000Z,31
2018-06-23T18:16:41.000Z,30.9
2018-06-23T18:18:41.000Z,30.9
2018-06-23T18:20:26.000Z,30.8
2018-06-23T18:21:41.000Z,30.8
2018-06-23T18:23:41.000Z,30.8
2018-06-23T18:24:41.000Z,30.8
2018-06-23T18:26:41.000Z,30.8
2018-06-23T18:27:41.000Z,30.8
2018-06-23T18:28:41.000Z,30.9
2018-06-23T18:30:41.000Z,30.9
2018-06-23T18:31:41.000Z,30.9
2018-06-23T18:33:41.000Z,30.9
2018-06-23T18:35:41.000Z,30.8
2018-06-23T18:37:41.000Z,30.7
2018-06-23T18:38:41.000Z,30.7
2018-06-23T18:39:41.000Z,30.7
2018-06-23T18:41:41.000Z,30.7
2018-06-23T18:43:41.000Z,30.8
2018-06-23T18:45:41.000Z,30.7
2018-06-23T18:46:41.000Z,30.7
2018-06-23T18:48:41.000Z,30.8
2018-06-23T18:49:41.000Z,30.8
2018-06-23T18:50:41.000Z,30.8
2018-06-23T18:52:41.000Z,30.7
2018-06-23T18:53:41.000Z,30.7
2018-06-23T18:55:41.000Z,30.7
2018-06-23T18:57:41.000Z,30.7
2018-06-23T18:58:41.000Z,30.7
2018-06-23T19:00:41.000Z,30.7
2018-06-23T19:02:26.000Z,30.7
2018-06-23T19:03:41.000Z,30.6
2018-06-23T19:05:41.000Z,30.6
2018-06-23T19:07:41.000Z,30.5
2018-06-23T19:08:41.000Z,30.6
2018-06-23T19:09:41.000Z,30.6
2018-06-23T19:11:41.000Z,30.6
2018-06-23T19:12:41.000Z,30.6
2018-06-23T19:14:41.000Z,30.6
2018-06-23T19:15:41.000Z,30.6
2018-06-23T19:17:41.000Z,30.6
2018-06-23T19:18:41.000Z,30.6
2018-06-23T19:19:41.000Z,30.6
2018-06-23T19:21:41.000Z,30.5
2018-06-23T19:22:41.000Z,30.5
2018-06-23T19:23:41.000Z,30.5
2018-06-23T19:25:41.000Z,30.6
2018-06-23T19:26:41.000Z,30.6
2018-06-23T19:28:41.000Z,30.6
2018-06-23T19:30:41.000Z,30.5
2018-06-23T19:31:41.000Z,30.5
2018-06-23T19:32:41.000Z,30.5
2018-06-23T19:34:41.000Z,30.5
2018-06-23T19:35:41.000Z,30.5
2018-06-23T19:36:41.000Z,30.5
2018-06-23T19:38:41.000Z,30.5
2018-06-23T19:40:41.000Z,30.5
2018-06-23T19:42:41.000Z,30.4
2018-06-23T19:43:41.000Z,30.4
2018-06-23T19:45:41.000Z,30.4
2018-06-23T19:46:41.000Z,30.4
2018-06-23T19:47:41.000Z,30.5
2018-06-23T19:49:41.000Z,30.5
2018-06-23T19:50:41.000Z,30.5
2018-06-23T19:51:41.000Z,30.6
2018-06-23T19:53:41.000Z,30.6
2018-06-23T19:54:41.000Z,30.6
2018-06-23T19:56:41.000Z,30.6
2018-06-23T19:58:41.000Z,30.5
2018-06-23T19:59:41.000Z,30.5
2018-06-23T20:01:41.000Z,30.5
2018-06-23T20:02:41.000Z,30.5
2018-06-23T20:03:41.000Z,30.5
2018-06-23T20:04:41.000Z,30.5
2018-06-23T20:06:41.000Z,30.5
2018-06-23T20:08:41.000Z,30.4
2018-06-23T20:10:41.000Z,30.4
2018-06-23T20:12:41.000Z,30.3
2018-06-23T20:13:41.000Z,30.3
2018-06-23T20:15:41.000Z,30.3
2018-06-23T20:17:41.000Z,30.2
2018-06-23T20:18:41.000Z,30.2
2018-06-23T20:20:41.000Z,30.2